createdAt,value
2018-03-19T00:00:35.489Z,19.90
2018-03-19T00:01:40.747Z,19.90
2018-03-19T00:02:46.111Z,20.00
2018-03-19T00:03:51.330Z,19.90
2018-03-19T00:04:56.622Z,19.90
2018-03-19T00:06:01.783Z,19.90
2018-03-19T00:07:07.045Z,19.90
2018-03-19T00:08:12.242Z,19.90
2018-03-19T00:09:17.465Z,19.90
2018-03-19T00:10:22.777Z,19.90
2018-03-19T00:11:27.928Z,19.90
2018-03-19T00:12:34.040Z,19.90
2018-03-19T00:13:39.202Z,19.90
2018-03-19T00:14:44.304Z,19.90
2018-03-19T00:15:49.515Z,19.90
2018-03-19T00:16:54.557Z,19.90
2018-03-19T00:17:59.665Z,19.90
2018-03-19T00:19:04.782Z,19.90
2018-03-19T00:20:10.721Z,19.90
2018-03-19T00:21:15.858Z,19.90
2018-03-19T00:22:21.064Z,19.90
2018-03-19T00:23:26.201Z,19.90
2018-03-19T00:24:31.797Z,19.90
2018-03-19T00:25:37.025Z,19.90
2018-03-19T00:26:42.238Z,19.90
2018-03-19T00:27:47.862Z,19.90
2018-03-19T00:28:53.225Z,19.90
2018-03-19T00:29:58.399Z,19.90
2018-03-19T00:31:03.652Z,19.90
2018-03-19T00:32:08.751Z,19.90
2018-03-19T00:33:13.961Z,19.90
2018-03-19T00:34:19.142Z,19.90
2018-03-19T00:35:24.325Z,19.90
2018-03-19T00:36:29.496Z,19.90
2018-03-19T00:37:35.425Z,20.00
2018-03-19T00:38:40.876Z,19.90
2018-03-19T00:39:46.350Z,19.90
2018-03-19T00:40:51.700Z,20.00
2018-03-19T00:41:57.000Z,19.90
2018-03-19T00:43:02.241Z,19.90
2018-03-19T00:44:07.498Z,19.90
2018-03-19T00:45:12.597Z,19.90
2018-03-19T00:46:17.747Z,19.90
2018-03-19T00:47:22.988Z,19.90
2018-03-19T00:48:28.230Z,19.90
2018-03-19T00:49:33.459Z,19.90
2018-03-19T00:50:38.788Z,20.00
2018-03-19T00:51:44.057Z,19.90
2018-03-19T00:52:49.324Z,19.90
2018-03-19T00:53:54.400Z,19.90
2018-03-19T00:55:00.142Z,19.90
2018-03-19T00:56:05.591Z,19.90
2018-03-19T00:57:10.834Z,19.90
2018-03-19T00:58:15.859Z,19.90
2018-03-19T00:59:21.260Z,19.90
2018-03-19T01:00:26.422Z,19.90
2018-03-19T01:01:31.583Z,19.90
2018-03-19T01:02:36.685Z,19.90
2018-03-19T01:03:41.618Z,19.90
2018-03-19T01:04:46.725Z,19.90
2018-03-19T01:05:51.650Z,19.90
2018-03-19T01:06:56.783Z,19.90
2018-03-19T01:08:02.267Z,19.90
2018-03-19T01:09:07.375Z,19.90
2018-03-19T01:10:12.448Z,19.90
2018-03-19T01:11:17.434Z,19.90
2018-03-19T01:12:22.523Z,19.90
2018-03-19T01:13:27.641Z,19.90
2018-03-19T01:14:32.684Z,19.90
2018-03-19T01:15:37.785Z,19.90
2018-03-19T01:16:42.674Z,19.90
2018-03-19T01:17:47.748Z,19.90
2018-03-19T01:18:52.648Z,19.90
2018-03-19T01:19:57.585Z,19.90
2018-03-19T01:21:02.452Z,19.90
2018-03-19T01:22:07.612Z,19.90
2018-03-19T01:23:12.502Z,19.90
2018-03-19T01:24:17.617Z,19.90
2018-03-19T01:25:22.714Z,19.90
2018-03-19T01:26:28.381Z,19.90
2018-03-19T01:27:33.303Z,19.90
2018-03-19T01:28:38.314Z,19.90
2018-03-19T01:29:43.183Z,19.90
2018-03-19T01:30:48.141Z,19.90
2018-03-19T01:31:53.368Z,19.90
2018-03-19T01:32:58.202Z,19.90
2018-03-19T01:34:03.306Z,19.90
2018-03-19T01:35:08.201Z,19.90
2018-03-19T01:36:13.204Z,19.90
2018-03-19T01:37:18.065Z,19.90
2018-03-19T01:38:23.124Z,19.90
2018-03-19T01:39:27.979Z,19.90
2018-03-19T01:40:33.023Z,19.90
2018-03-19T01:41:38.026Z,19.90
2018-03-19T01:42:42.877Z,19.90
2018-03-19T01:43:47.924Z,19.90
2018-03-19T01:44:52.893Z,19.90
2018-03-19T01:45:57.839Z,19.90
2018-03-19T01:47:02.921Z,19.90
2018-03-19T01:48:07.998Z,19.90
2018-03-19T01:49:13.175Z,19.90
2018-03-19T01:50:18.210Z,19.90
2018-03-19T01:51:23.125Z,19.90
2018-03-19T01:52:28.060Z,19.90
2018-03-19T01:53:33.109Z,19.90
2018-03-19T01:54:38.092Z,19.90
2018-03-19T01:55:43.112Z,19.90
2018-03-19T01:56:47.961Z,19.90
2018-03-19T01:57:52.981Z,19.90
2018-03-19T01:58:58.076Z,20.00
2018-03-19T02:00:03.165Z,19.90
2018-03-19T02:01:08.070Z,19.90
2018-03-19T02:02:12.953Z,19.90
2018-03-19T02:03:17.856Z,19.90
2018-03-19T02:04:22.963Z,19.90
2018-03-19T02:05:28.028Z,19.90
2018-03-19T02:06:33.149Z,19.90
2018-03-19T02:07:38.351Z,19.90
2018-03-19T02:08:43.529Z,19.90
2018-03-19T02:09:48.652Z,19.90
2018-03-19T02:10:53.760Z,19.90
2018-03-19T02:11:58.821Z,19.90
2018-03-19T02:13:04.204Z,19.90
2018-03-19T02:14:09.117Z,19.90
2018-03-19T02:15:14.220Z,19.90
2018-03-19T02:16:19.355Z,19.90
2018-03-19T02:17:25.568Z,19.90
2018-03-19T02:18:30.362Z,19.90
2018-03-19T02:19:35.240Z,19.90
2018-03-19T02:20:40.164Z,19.90
2018-03-19T02:21:44.982Z,19.90
2018-03-19T02:22:49.821Z,19.90
2018-03-19T02:23:54.902Z,19.90
2018-03-19T02:24:59.744Z,19.90
2018-03-19T02:26:04.613Z,19.90
2018-03-19T02:27:09.694Z,19.90
2018-03-19T02:28:14.927Z,19.90
2018-03-19T02:29:19.838Z,19.90
2018-03-19T02:30:24.758Z,19.90
2018-03-19T02:31:29.699Z,19.90
2018-03-19T02:32:34.864Z,19.90
2018-03-19T02:33:39.906Z,19.90
2018-03-19T02:34:44.834Z,19.90
2018-03-19T02:35:49.878Z,19.90
2018-03-19T02:36:54.766Z,19.90
2018-03-19T02:38:00.519Z,19.90
2018-03-19T02:39:05.433Z,19.90
2018-03-19T02:40:10.382Z,19.90
2018-03-19T02:41:15.462Z,19.90
2018-03-19T02:42:20.509Z,19.90
2018-03-19T02:43:25.509Z,19.90
2018-03-19T02:44:30.375Z,19.90
2018-03-19T02:45:35.213Z,19.90
2018-03-19T02:46:40.291Z,19.90
2018-03-19T02:47:45.130Z,19.90
2018-03-19T02:48:50.171Z,19.90
2018-03-19T02:49:54.997Z,19.90
2018-03-19T02:51:00.083Z,19.90
2018-03-19T02:52:05.213Z,19.90
2018-03-19T02:53:10.416Z,19.90
2018-03-19T02:54:15.609Z,19.90
2018-03-19T02:55:21.292Z,19.90
2018-03-19T02:56:26.259Z,19.90
2018-03-19T02:57:31.184Z,19.90
2018-03-19T02:58:36.208Z,19.90
2018-03-19T02:59:41.256Z,19.90
2018-03-19T03:00:46.352Z,19.90
2018-03-19T03:01:51.258Z,19.90
2018-03-19T03:02:56.283Z,19.90
2018-03-19T03:04:01.319Z,19.90
2018-03-19T03:05:06.272Z,19.90
2018-03-19T03:06:11.306Z,19.90
2018-03-19T03:07:16.222Z,19.90
2018-03-19T03:08:21.353Z,19.90
2018-03-19T03:09:26.277Z,19.90
2018-03-19T03:10:31.286Z,19.90
2018-03-19T03:11:36.307Z,19.90
2018-03-19T03:12:41.468Z,19.90
2018-03-19T03:13:46.478Z,19.90
2018-03-19T03:14:51.409Z,19.90
2018-03-19T03:15:56.367Z,19.90
2018-03-19T03:17:01.442Z,19.90
2018-03-19T03:18:06.468Z,19.90
2018-03-19T03:19:11.346Z,19.90
2018-03-19T03:20:16.399Z,19.90
2018-03-19T03:21:21.583Z,19.90
2018-03-19T03:22:26.243Z,19.90
2018-03-19T03:23:31.323Z,19.90
2018-03-19T03:24:36.397Z,19.90
2018-03-19T03:25:41.301Z,19.90
2018-03-19T03:26:46.344Z,19.90
2018-03-19T03:27:51.424Z,19.90
2018-03-19T03:28:56.232Z,19.90
2018-03-19T03:30:01.105Z,19.90
2018-03-19T03:31:05.913Z,19.80
2018-03-19T03:32:10.893Z,19.80
2018-03-19T03:33:15.742Z,19.80
2018-03-19T03:34:20.592Z,19.80
2018-03-19T03:35:25.466Z,19.80
2018-03-19T03:36:30.498Z,19.80
2018-03-19T03:37:35.353Z,19.80
2018-03-19T03:38:40.395Z,19.80
2018-03-19T03:39:45.434Z,19.80
2018-03-19T03:40:50.296Z,19.80
2018-03-19T03:41:55.311Z,19.80
2018-03-19T03:43:00.358Z,19.80
2018-03-19T03:44:05.494Z,19.80
2018-03-19T03:45:10.382Z,19.80
2018-03-19T03:46:15.508Z,19.80
2018-03-19T03:47:20.620Z,19.80
2018-03-19T03:48:25.577Z,19.80
2018-03-19T03:49:30.648Z,19.80
2018-03-19T03:50:35.572Z,19.80
2018-03-19T03:51:40.601Z,19.80
2018-03-19T03:52:45.614Z,19.80
2018-03-19T03:53:50.817Z,19.80
2018-03-19T03:54:55.741Z,19.80
2018-03-19T03:56:00.772Z,19.80
2018-03-19T03:57:05.566Z,19.70
2018-03-19T03:58:10.524Z,19.80
2018-03-19T03:59:15.359Z,19.80
2018-03-19T04:00:20.302Z,19.80
2018-03-19T04:01:25.134Z,19.80
2018-03-19T04:02:29.889Z,19.80
2018-03-19T04:03:34.655Z,19.70
2018-03-19T04:04:39.425Z,19.80
2018-03-19T04:05:44.231Z,19.80
2018-03-19T04:06:49.251Z,19.80
2018-03-19T04:07:54.412Z,19.70
2018-03-19T04:08:59.201Z,19.70
2018-03-19T04:10:04.329Z,19.80
2018-03-19T04:11:09.224Z,19.70
2018-03-19T04:12:14.174Z,19.80
2018-03-19T04:13:19.108Z,19.70
2018-03-19T04:14:24.033Z,19.70
2018-03-19T04:15:29.022Z,19.70
2018-03-19T04:16:33.947Z,19.70
2018-03-19T04:17:38.987Z,19.70
2018-03-19T04:18:44.077Z,19.70
2018-03-19T04:19:48.975Z,19.70
2018-03-19T04:20:53.828Z,19.70
2018-03-19T04:21:58.895Z,19.70
2018-03-19T04:23:03.915Z,19.70
2018-03-19T04:24:08.853Z,19.70
2018-03-19T04:25:13.897Z,19.70
2018-03-19T04:26:18.932Z,19.70
2018-03-19T04:27:23.872Z,19.70
2018-03-19T04:28:29.034Z,19.70
2018-03-19T04:29:33.970Z,19.70
2018-03-19T04:30:39.014Z,19.70
2018-03-19T04:31:43.805Z,19.70
2018-03-19T04:32:48.582Z,19.70
2018-03-19T04:33:53.612Z,19.70
2018-03-19T04:34:58.766Z,19.70
2018-03-19T04:36:03.853Z,19.70
2018-03-19T04:37:08.916Z,19.70
2018-03-19T04:38:14.017Z,19.70
2018-03-19T04:39:18.858Z,19.70
2018-03-19T04:40:23.677Z,19.70
2018-03-19T04:41:28.746Z,19.70
2018-03-19T04:42:33.786Z,19.70
2018-03-19T04:43:38.816Z,19.70
2018-03-19T04:44:43.835Z,19.70
2018-03-19T04:45:48.904Z,19.70
2018-03-19T04:46:53.662Z,19.70
2018-03-19T04:47:58.771Z,19.70
2018-03-19T04:49:03.818Z,19.70
2018-03-19T04:50:08.856Z,19.70
2018-03-19T04:51:13.915Z,19.70
2018-03-19T04:52:18.960Z,19.70
2018-03-19T04:53:23.882Z,19.70
2018-03-19T04:54:28.741Z,19.80
2018-03-19T04:55:33.759Z,19.70
2018-03-19T04:56:38.783Z,19.70
2018-03-19T04:57:43.915Z,19.70
2018-03-19T04:58:48.838Z,19.70
2018-03-19T04:59:53.974Z,19.70
2018-03-19T05:00:59.049Z,19.70
2018-03-19T05:02:04.180Z,19.70
2018-03-19T05:03:08.981Z,19.70
2018-03-19T05:04:13.984Z,19.70
2018-03-19T05:05:18.960Z,19.70
2018-03-19T05:06:23.895Z,19.70
2018-03-19T05:07:28.853Z,19.70
2018-03-19T05:08:33.754Z,19.70
2018-03-19T05:09:38.905Z,19.70
2018-03-19T05:10:43.817Z,19.70
2018-03-19T05:11:48.785Z,19.70
2018-03-19T05:12:53.763Z,19.70
2018-03-19T05:13:58.938Z,19.70
2018-03-19T05:15:04.052Z,19.70
2018-03-19T05:16:09.177Z,19.70
2018-03-19T05:17:14.581Z,19.70
2018-03-19T05:18:19.555Z,19.70
2018-03-19T05:19:24.585Z,19.70
2018-03-19T05:20:29.682Z,19.70
2018-03-19T05:21:34.931Z,19.70
2018-03-19T05:22:40.171Z,19.70
2018-03-19T05:23:45.141Z,19.70
2018-03-19T05:24:50.188Z,19.70
2018-03-19T05:25:55.212Z,19.70
2018-03-19T05:27:00.452Z,19.70
2018-03-19T05:28:05.672Z,19.70
2018-03-19T05:29:10.653Z,19.70
2018-03-19T05:30:15.859Z,19.70
2018-03-19T05:31:21.611Z,19.60
2018-03-19T05:32:27.268Z,19.60
2018-03-19T05:33:32.293Z,19.60
2018-03-19T05:34:37.402Z,19.60
2018-03-19T05:35:42.539Z,19.70
2018-03-19T05:36:47.525Z,19.70
2018-03-19T05:37:52.588Z,19.70
2018-03-19T05:38:57.700Z,19.70
2018-03-19T05:40:02.813Z,19.70
2018-03-19T05:41:08.039Z,19.70
2018-03-19T05:42:13.115Z,19.70
2018-03-19T05:43:18.124Z,19.70
2018-03-19T05:44:23.042Z,19.70
2018-03-19T05:45:27.930Z,19.70
2018-03-19T05:46:32.784Z,19.70
2018-03-19T05:47:37.905Z,19.70
2018-03-19T05:48:43.080Z,19.70
2018-03-19T05:49:47.966Z,19.70
2018-03-19T05:50:52.965Z,19.70
2018-03-19T05:51:58.728Z,19.70
2018-03-19T05:53:03.784Z,19.70
2018-03-19T05:54:08.636Z,19.70
2018-03-19T05:55:13.733Z,19.70
2018-03-19T05:56:18.843Z,19.70
2018-03-19T05:57:23.794Z,19.70
2018-03-19T05:58:28.937Z,19.70
2018-03-19T05:59:34.057Z,19.70
2018-03-19T06:00:39.116Z,19.70
2018-03-19T06:01:44.097Z,19.70
2018-03-19T06:02:49.086Z,19.70
2018-03-19T06:03:54.073Z,19.70
2018-03-19T06:04:59.137Z,19.70
2018-03-19T06:06:04.030Z,19.70
2018-03-19T06:07:08.973Z,19.70
2018-03-19T06:08:14.111Z,19.70
2018-03-19T06:09:19.159Z,19.70
2018-03-19T06:10:24.241Z,19.70
2018-03-19T06:11:29.178Z,19.70
2018-03-19T06:12:34.305Z,19.70
2018-03-19T06:13:39.182Z,19.70
2018-03-19T06:14:44.077Z,19.70
2018-03-19T06:15:49.268Z,19.60
2018-03-19T06:16:54.296Z,19.60
2018-03-19T06:17:59.368Z,19.50
2018-03-19T06:19:04.340Z,19.40
2018-03-19T06:20:09.234Z,19.30
2018-03-19T06:21:14.176Z,19.20
2018-03-19T06:22:19.140Z,19.10
2018-03-19T06:23:24.240Z,19.10
2018-03-19T06:24:29.200Z,19.00
2018-03-19T06:25:34.151Z,18.90
2018-03-19T06:26:38.971Z,18.90
2018-03-19T06:27:44.099Z,18.80
2018-03-19T06:28:48.992Z,18.80
2018-03-19T06:29:53.988Z,18.70
2018-03-19T06:30:59.059Z,18.60
2018-03-19T06:32:04.107Z,18.50
2018-03-19T06:33:09.213Z,18.40
2018-03-19T06:34:14.025Z,18.30
2018-03-19T06:35:25.692Z,18.40
2018-03-19T06:36:39.197Z,18.30
2018-03-19T06:37:47.781Z,18.40
2018-03-19T06:38:58.456Z,18.40
2018-03-19T06:40:13.237Z,18.50
2018-03-19T06:41:26.473Z,18.50
2018-03-19T06:42:37.520Z,18.60
2018-03-19T06:43:46.017Z,18.70
2018-03-19T06:44:55.821Z,18.70
2018-03-19T06:46:03.784Z,18.80
2018-03-19T06:47:13.782Z,18.90
2018-03-19T06:48:21.354Z,18.90
2018-03-19T06:49:32.554Z,18.90
2018-03-19T06:50:41.960Z,19.00
2018-03-19T06:51:51.756Z,19.10
2018-03-19T06:53:01.866Z,19.20
2018-03-19T06:54:11.621Z,19.30
2018-03-19T06:55:25.222Z,19.30
2018-03-19T06:56:34.200Z,19.40
2018-03-19T06:57:43.832Z,19.40
2018-03-19T06:58:54.191Z,19.40
2018-03-19T07:00:06.890Z,19.40
2018-03-19T07:01:16.442Z,19.50
2018-03-19T07:02:27.112Z,19.50
2018-03-19T07:03:37.645Z,19.50
2018-03-19T07:04:48.352Z,19.50
2018-03-19T07:05:57.868Z,19.60
2018-03-19T07:07:03.492Z,19.70
2018-03-19T07:08:08.357Z,19.70
2018-03-19T07:09:13.207Z,19.70
2018-03-19T07:10:18.291Z,19.70
2018-03-19T07:11:23.383Z,19.80
2018-03-19T07:12:28.395Z,19.80
2018-03-19T07:13:33.407Z,19.80
2018-03-19T07:14:38.347Z,19.80
2018-03-19T07:15:45.212Z,19.90
2018-03-19T07:16:50.440Z,19.90
2018-03-19T07:17:56.577Z,19.90
2018-03-19T07:19:06.253Z,19.90
2018-03-19T07:20:11.553Z,19.90
2018-03-19T07:21:16.599Z,19.90
2018-03-19T07:22:21.490Z,19.90
2018-03-19T07:23:26.587Z,19.90
2018-03-19T07:24:31.717Z,19.90
2018-03-19T07:25:36.911Z,19.90
2018-03-19T07:26:41.953Z,19.90
2018-03-19T07:27:46.772Z,19.90
2018-03-19T07:28:51.777Z,19.90
2018-03-19T07:29:56.963Z,19.90
2018-03-19T07:31:02.172Z,19.90
2018-03-19T07:32:07.246Z,19.90
2018-03-19T07:33:12.391Z,20.00
2018-03-19T07:34:17.330Z,20.00
2018-03-19T07:35:22.409Z,19.90
2018-03-19T07:36:27.636Z,20.00
2018-03-19T07:37:32.661Z,20.00
2018-03-19T07:38:37.806Z,20.00
2018-03-19T07:39:42.859Z,20.00
2018-03-19T07:40:47.820Z,20.00
2018-03-19T07:41:52.657Z,20.00
2018-03-19T07:42:57.848Z,20.00
2018-03-19T07:44:02.962Z,20.10
2018-03-19T07:45:07.952Z,20.00
2018-03-19T07:46:12.975Z,20.10
2018-03-19T07:47:17.850Z,20.10
2018-03-19T07:48:22.902Z,20.10
2018-03-19T07:49:28.061Z,20.10
2018-03-19T07:50:33.041Z,20.20
2018-03-19T07:51:38.038Z,20.20
2018-03-19T07:52:42.954Z,20.20
2018-03-19T07:53:47.855Z,20.20
2018-03-19T07:54:52.727Z,20.20
2018-03-19T07:55:57.593Z,20.20
2018-03-19T07:57:02.637Z,20.10
2018-03-19T07:58:07.703Z,20.10
2018-03-19T07:59:12.810Z,20.10
2018-03-19T08:00:17.820Z,20.20
2018-03-19T08:01:23.058Z,20.00
2018-03-19T08:02:28.153Z,20.10
2018-03-19T08:03:33.272Z,20.10
2018-03-19T08:04:38.250Z,20.10
2018-03-19T08:05:43.396Z,20.10
2018-03-19T08:06:48.553Z,20.10
2018-03-19T08:07:53.688Z,20.10
2018-03-19T08:08:58.587Z,20.10
2018-03-19T08:10:03.539Z,20.10
2018-03-19T08:11:08.575Z,20.10
2018-03-19T08:12:13.886Z,20.10
2018-03-19T08:13:19.029Z,20.10
2018-03-19T08:14:24.383Z,20.10
2018-03-19T08:15:29.291Z,20.10
2018-03-19T08:16:34.192Z,20.20
2018-03-19T08:17:39.391Z,20.10
2018-03-19T08:18:44.418Z,20.10
2018-03-19T08:19:49.404Z,20.10
2018-03-19T08:20:54.382Z,20.10
2018-03-19T08:21:59.506Z,20.10
2018-03-19T08:23:04.655Z,20.20
2018-03-19T08:24:09.573Z,20.20
2018-03-19T08:25:14.480Z,20.10
2018-03-19T08:26:19.642Z,20.10
2018-03-19T08:27:24.613Z,20.20
2018-03-19T08:28:29.822Z,20.20
2018-03-19T08:29:34.989Z,20.20
2018-03-19T08:30:40.047Z,20.20
2018-03-19T08:31:45.059Z,20.10
2018-03-19T08:32:50.118Z,20.10
2018-03-19T08:33:55.113Z,20.10
2018-03-19T08:35:00.267Z,20.10
2018-03-19T08:36:05.392Z,20.00
2018-03-19T08:37:10.488Z,20.00
2018-03-19T08:38:15.608Z,20.00
2018-03-19T08:39:21.410Z,20.00
2018-03-19T08:40:26.316Z,20.00
2018-03-19T08:41:31.227Z,20.00
2018-03-19T08:42:36.276Z,20.00
2018-03-19T08:43:41.353Z,20.00
2018-03-19T08:44:46.339Z,20.00
2018-03-19T08:45:51.171Z,20.00
2018-03-19T08:46:56.365Z,19.90
2018-03-19T08:48:01.427Z,20.00
2018-03-19T08:49:06.481Z,20.00
2018-03-19T08:50:11.621Z,20.00
2018-03-19T08:51:16.817Z,19.90
2018-03-19T08:52:21.932Z,19.90
2018-03-19T08:53:26.970Z,20.00
2018-03-19T08:54:32.062Z,19.90
2018-03-19T08:55:37.085Z,19.90
2018-03-19T08:56:42.290Z,19.90
2018-03-19T08:57:47.442Z,19.90
2018-03-19T08:58:52.589Z,19.90
2018-03-19T08:59:57.737Z,19.90
2018-03-19T09:01:02.965Z,19.90
2018-03-19T09:02:07.953Z,19.90
2018-03-19T09:03:12.993Z,19.90
2018-03-19T09:04:17.992Z,19.90
2018-03-19T09:05:23.028Z,19.90
2018-03-19T09:06:28.032Z,19.90
2018-03-19T09:07:32.925Z,19.90
2018-03-19T09:08:37.862Z,19.90
2018-03-19T09:09:42.976Z,19.90
2018-03-19T09:10:47.947Z,19.90
2018-03-19T09:11:52.861Z,19.90
2018-03-19T09:12:57.997Z,19.90
2018-03-19T09:14:02.938Z,19.90
2018-03-19T09:15:08.041Z,19.90
2018-03-19T09:16:13.013Z,19.90
2018-03-19T09:17:18.180Z,19.90
2018-03-19T09:18:23.341Z,19.90
2018-03-19T09:19:28.508Z,19.90
2018-03-19T09:20:33.424Z,19.90
2018-03-19T09:21:38.571Z,19.90
2018-03-19T09:22:43.764Z,19.90
2018-03-19T09:23:48.764Z,19.90
2018-03-19T09:24:53.931Z,19.90
2018-03-19T09:25:59.115Z,19.90
2018-03-19T09:27:04.065Z,19.90
2018-03-19T09:28:09.078Z,19.90
2018-03-19T09:29:14.016Z,19.90
2018-03-19T09:30:19.230Z,19.90
2018-03-19T09:31:24.215Z,19.90
2018-03-19T09:32:29.265Z,19.90
2018-03-19T09:33:34.419Z,19.90
2018-03-19T09:34:39.389Z,19.90
2018-03-19T09:35:44.376Z,19.90
2018-03-19T09:36:49.539Z,19.90
2018-03-19T09:37:54.722Z,19.90
2018-03-19T09:38:59.610Z,19.90
2018-03-19T09:40:04.789Z,19.90
2018-03-19T09:41:10.075Z,19.90
2018-03-19T09:42:15.348Z,19.90
2018-03-19T09:43:20.534Z,19.90
2018-03-19T09:44:25.840Z,19.90
2018-03-19T09:45:33.866Z,19.90
2018-03-19T09:46:38.980Z,19.90
2018-03-19T09:47:44.188Z,19.90
2018-03-19T09:48:49.254Z,19.90
2018-03-19T09:49:54.396Z,19.90
2018-03-19T09:50:59.473Z,19.90
2018-03-19T09:52:04.521Z,19.90
2018-03-19T09:53:09.682Z,19.90
2018-03-19T09:54:15.098Z,19.90
2018-03-19T09:55:20.104Z,19.90
2018-03-19T09:56:25.296Z,19.90
2018-03-19T09:57:30.271Z,19.90
2018-03-19T09:58:35.311Z,19.90
2018-03-19T09:59:40.277Z,19.90
2018-03-19T10:00:45.465Z,19.90
2018-03-19T10:01:50.538Z,19.90
2018-03-19T10:02:55.671Z,19.90
2018-03-19T10:04:00.764Z,19.90
2018-03-19T10:05:05.959Z,19.90
2018-03-19T10:06:10.969Z,19.90
2018-03-19T10:07:16.163Z,19.90
2018-03-19T10:08:21.267Z,19.90
2018-03-19T10:09:26.699Z,19.90
2018-03-19T10:10:32.581Z,19.90
2018-03-19T10:11:37.745Z,19.90
2018-03-19T10:12:42.745Z,19.90
2018-03-19T10:13:47.822Z,19.90
2018-03-19T10:14:52.942Z,20.00
2018-03-19T10:15:58.127Z,20.00
2018-03-19T10:17:03.116Z,20.00
2018-03-19T10:18:08.316Z,20.00
2018-03-19T10:19:13.356Z,20.00
2018-03-19T10:20:18.568Z,20.00
2018-03-19T10:21:23.900Z,20.00
2018-03-19T10:22:29.214Z,20.00
2018-03-19T10:23:34.508Z,20.00
2018-03-19T10:24:39.657Z,20.00
2018-03-19T10:25:44.908Z,20.00
2018-03-19T10:26:50.150Z,20.00
2018-03-19T10:27:55.232Z,20.00
2018-03-19T10:29:00.562Z,20.00
2018-03-19T10:30:05.636Z,20.00
2018-03-19T10:31:10.793Z,20.00
2018-03-19T10:32:15.899Z,20.00
2018-03-19T10:33:21.205Z,20.00
2018-03-19T10:34:26.362Z,20.00
2018-03-19T10:35:31.530Z,20.00
2018-03-19T10:36:36.590Z,20.00
2018-03-19T10:37:41.667Z,20.10
2018-03-19T10:38:46.923Z,20.10
2018-03-19T10:39:52.205Z,20.10
2018-03-19T10:40:57.412Z,20.10
2018-03-19T10:42:02.325Z,20.10
2018-03-19T10:43:07.484Z,20.00
2018-03-19T10:44:12.645Z,20.10
2018-03-19T10:45:17.906Z,20.10
2018-03-19T10:46:23.067Z,20.10
2018-03-19T10:47:28.124Z,20.10
2018-03-19T10:48:33.224Z,20.10
2018-03-19T10:49:38.316Z,20.10
2018-03-19T10:50:43.387Z,20.10
2018-03-19T10:51:48.333Z,20.10
2018-03-19T10:52:53.626Z,20.10
2018-03-19T10:53:58.916Z,20.10
2018-03-19T10:55:04.188Z,20.10
2018-03-19T10:56:09.384Z,20.10
2018-03-19T10:57:14.507Z,20.10
2018-03-19T10:58:20.321Z,20.10
2018-03-19T10:59:25.435Z,20.10
2018-03-19T11:00:30.675Z,20.10
2018-03-19T11:01:35.923Z,20.10
2018-03-19T11:02:40.924Z,20.20
2018-03-19T11:03:46.090Z,20.20
2018-03-19T11:04:51.100Z,20.20
2018-03-19T11:05:56.052Z,20.10
2018-03-19T11:07:01.088Z,20.20
2018-03-19T11:08:06.239Z,20.10
2018-03-19T11:09:11.248Z,20.20
2018-03-19T11:10:16.353Z,20.20
2018-03-19T11:11:21.275Z,20.20
2018-03-19T11:12:26.168Z,20.20
2018-03-19T11:13:31.035Z,20.20
2018-03-19T11:14:36.159Z,20.10
2018-03-19T11:15:41.343Z,20.00
2018-03-19T11:16:46.327Z,19.90
2018-03-19T11:17:51.270Z,19.90
2018-03-19T11:18:56.433Z,19.80
2018-03-19T11:20:01.316Z,19.70
2018-03-19T11:21:06.190Z,19.70
2018-03-19T11:22:11.098Z,19.60
2018-03-19T11:23:15.895Z,19.60
2018-03-19T11:24:20.945Z,19.60
2018-03-19T11:25:26.035Z,19.60
2018-03-19T11:26:31.243Z,19.50
2018-03-19T11:27:36.435Z,19.50
2018-03-19T11:28:41.460Z,19.40
2018-03-19T11:29:46.577Z,19.40
2018-03-19T11:30:51.654Z,19.40
2018-03-19T11:31:56.664Z,19.40
2018-03-19T11:33:01.775Z,19.40
2018-03-19T11:34:06.917Z,19.30
2018-03-19T11:35:12.006Z,19.30
2018-03-19T11:36:17.905Z,19.30
2018-03-19T11:37:22.924Z,19.30
2018-03-19T11:38:28.029Z,19.40
2018-03-19T11:39:33.111Z,19.40
2018-03-19T11:40:38.057Z,19.50
2018-03-19T11:41:43.779Z,19.50
2018-03-19T11:42:48.843Z,19.50
2018-03-19T11:43:53.926Z,19.60
2018-03-19T11:44:59.141Z,19.60
2018-03-19T11:46:04.173Z,19.70
2018-03-19T11:47:09.339Z,19.70
2018-03-19T11:48:14.215Z,19.70
2018-03-19T11:49:19.359Z,19.70
2018-03-19T11:50:24.249Z,19.70
2018-03-19T11:51:29.306Z,19.70
2018-03-19T11:52:34.175Z,19.70
2018-03-19T11:53:39.254Z,19.70
2018-03-19T11:54:44.332Z,19.70
2018-03-19T11:55:49.409Z,19.80
2018-03-19T11:56:54.590Z,19.70
2018-03-19T11:57:59.573Z,19.80
2018-03-19T11:59:04.552Z,19.80
2018-03-19T12:00:09.531Z,19.80
2018-03-19T12:01:14.443Z,19.80
2018-03-19T12:02:19.497Z,19.80
2018-03-19T12:03:24.549Z,19.90
2018-03-19T12:04:29.634Z,19.90
2018-03-19T12:05:34.514Z,19.80
2018-03-19T12:06:39.412Z,19.90
2018-03-19T12:07:44.607Z,19.90
2018-03-19T12:08:49.699Z,19.90
2018-03-19T12:09:54.678Z,19.90
2018-03-19T12:10:59.495Z,19.90
2018-03-19T12:12:04.346Z,19.90
2018-03-19T12:13:09.378Z,19.90
2018-03-19T12:14:14.257Z,19.90
2018-03-19T12:15:19.431Z,19.90
2018-03-19T12:16:24.398Z,19.90
2018-03-19T12:17:29.540Z,19.90
2018-03-19T12:18:34.759Z,19.90
2018-03-19T12:19:39.697Z,19.90
2018-03-19T12:20:44.750Z,19.90
2018-03-19T12:21:49.924Z,19.90
2018-03-19T12:22:54.790Z,19.90
2018-03-19T12:23:59.629Z,19.90
2018-03-19T12:25:04.593Z,20.00
2018-03-19T12:26:10.033Z,20.00
2018-03-19T12:27:14.929Z,20.00
2018-03-19T12:28:19.996Z,20.00
2018-03-19T12:29:24.860Z,20.00
2018-03-19T12:30:29.816Z,20.00
2018-03-19T12:31:34.736Z,20.10
2018-03-19T12:32:39.478Z,20.10
2018-03-19T12:33:44.328Z,20.10
2018-03-19T12:34:49.238Z,20.10
2018-03-19T12:35:53.992Z,20.00
2018-03-19T12:36:58.927Z,20.10
2018-03-19T12:38:03.914Z,20.10
2018-03-19T12:39:08.737Z,20.10
2018-03-19T12:40:13.838Z,20.10
2018-03-19T12:41:18.861Z,20.10
2018-03-19T12:42:23.922Z,20.10
2018-03-19T12:43:28.922Z,20.10
2018-03-19T12:44:34.034Z,20.10
2018-03-19T12:45:39.070Z,20.10
2018-03-19T12:46:44.072Z,20.10
2018-03-19T12:47:49.655Z,20.10
2018-03-19T12:48:54.644Z,20.10
2018-03-19T12:49:59.653Z,20.10
2018-03-19T12:51:04.639Z,20.20
2018-03-19T12:52:09.449Z,20.10
2018-03-19T12:53:14.462Z,20.20
2018-03-19T12:54:20.193Z,20.10
2018-03-19T12:55:25.050Z,20.10
2018-03-19T12:56:30.045Z,20.10
2018-03-19T12:57:35.015Z,20.10
2018-03-19T12:58:39.827Z,20.10
2018-03-19T12:59:44.631Z,20.10
2018-03-19T13:00:49.406Z,20.10
2018-03-19T13:01:54.311Z,20.10
2018-03-19T13:02:59.192Z,20.10
2018-03-19T13:04:04.803Z,20.10
2018-03-19T13:05:09.711Z,20.10
2018-03-19T13:06:14.664Z,20.10
2018-03-19T13:07:19.826Z,20.10
2018-03-19T13:08:24.924Z,20.20
2018-03-19T13:09:30.054Z,20.10
2018-03-19T13:10:35.055Z,20.10
2018-03-19T13:11:39.967Z,20.20
2018-03-19T13:12:44.933Z,20.20
2018-03-19T13:13:49.772Z,20.20
2018-03-19T13:14:54.546Z,20.20
2018-03-19T13:15:59.709Z,20.20
2018-03-19T13:17:04.733Z,20.20
2018-03-19T13:18:09.649Z,20.20
2018-03-19T13:19:14.432Z,20.30
2018-03-19T13:20:19.245Z,20.30
2018-03-19T13:21:24.065Z,20.20
2018-03-19T13:22:29.209Z,20.20
2018-03-19T13:23:34.029Z,20.30
2018-03-19T13:24:38.775Z,20.30
2018-03-19T13:25:43.803Z,20.30
2018-03-19T13:26:48.808Z,20.30
2018-03-19T13:27:53.743Z,20.30
2018-03-19T13:28:59.012Z,20.30
2018-03-19T13:30:04.072Z,20.30
2018-03-19T13:31:09.107Z,20.30
2018-03-19T13:32:14.185Z,20.30
2018-03-19T13:33:19.148Z,20.30
2018-03-19T13:34:24.215Z,20.30
2018-03-19T13:35:29.268Z,20.30
2018-03-19T13:36:34.394Z,20.30
2018-03-19T13:37:39.242Z,20.30
2018-03-19T13:38:44.642Z,20.30
2018-03-19T13:39:49.612Z,20.40
2018-03-19T13:40:55.485Z,20.40
2018-03-19T13:42:00.684Z,20.40
2018-03-19T13:43:05.789Z,20.40
2018-03-19T13:44:10.651Z,20.40
2018-03-19T13:45:15.568Z,20.40
2018-03-19T13:46:20.763Z,20.40
2018-03-19T13:47:25.807Z,20.40
2018-03-19T13:48:30.836Z,20.30
2018-03-19T13:49:35.700Z,20.30
2018-03-19T13:50:40.716Z,20.30
2018-03-19T13:51:45.704Z,20.30
2018-03-19T13:52:50.604Z,20.20
2018-03-19T13:53:55.695Z,20.20
2018-03-19T13:55:00.587Z,20.30
2018-03-19T13:56:05.642Z,20.20
2018-03-19T13:57:10.763Z,20.20
2018-03-19T13:58:15.692Z,20.20
2018-03-19T13:59:20.823Z,20.20
2018-03-19T14:00:25.849Z,20.20